createdAt,value
2022-10-02T00:01:12.870Z,99311.59
2022-10-02T00:03:45.915Z,99306.78
2022-10-02T00:06:20.585Z,99319.00
2022-10-02T00:08:50.481Z,99318.34
2022-10-02T00:11:21.544Z,99323.37
2022-10-02T00:13:51.011Z,99325.66
2022-10-02T00:16:27.918Z,99322.66
2022-10-02T00:19:04.151Z,99335.47
2022-10-02T00:21:46.434Z,99337.03
2022-10-02T00:24:17.145Z,99336.75
2022-10-02T00:26:50.959Z,99325.09
2022-10-02T00:29:31.376Z,99330.22
2022-10-02T00:32:02.999Z,99328.41
2022-10-02T00:34:33.698Z,99335.59
2022-10-02T00:37:03.416Z,99337.78
2022-10-02T00:39:36.641Z,99346.31
2022-10-02T00:42:11.878Z,99340.19
2022-10-02T00:44:58.493Z,99345.31
2022-10-02T00:47:29.892Z,99346.31
2022-10-02T00:50:00.925Z,99343.53
2022-10-02T00:52:45.049Z,99354.34
2022-10-02T00:55:37.985Z,99361.81
2022-10-02T00:58:24.177Z,99355.88
2022-10-02T01:00:59.792Z,99362.78
2022-10-02T01:03:30.254Z,99369.28
2022-10-02T01:05:58.814Z,99369.13
2022-10-02T01:08:32.118Z,99365.22
2022-10-02T01:11:00.618Z,99369.28
2022-10-02T01:13:32.573Z,99375.69
2022-10-02T01:16:03.326Z,99374.34
2022-10-02T01:18:34.484Z,99391.13
2022-10-02T01:21:03.946Z,99395.88
2022-10-02T01:23:38.618Z,99396.66
2022-10-02T01:26:08.771Z,99395.56
2022-10-02T01:28:39.728Z,99401.78
2022-10-02T01:31:10.276Z,99404.28
2022-10-02T01:33:39.711Z,99418.44
2022-10-02T01:36:12.298Z,99417.72
2022-10-02T01:38:41.169Z,99429.44
2022-10-02T01:41:12.258Z,99428.00
2022-10-02T01:43:42.552Z,99433.31
2022-10-02T01:46:26.837Z,99428.34
2022-10-02T01:48:56.917Z,99431.16
2022-10-02T01:51:32.659Z,99449.88
2022-10-02T01:54:04.839Z,99453.81
2022-10-02T01:56:39.608Z,99467.41
2022-10-02T01:59:09.862Z,99474.87
2022-10-02T02:01:41.219Z,99476.81
2022-10-02T02:04:14.436Z,99477.41
2022-10-02T02:06:44.690Z,99475.94
2022-10-02T02:09:21.334Z,99477.09
2022-10-02T02:11:59.548Z,99489.16
2022-10-02T02:14:29.099Z,99491.69
2022-10-02T02:16:59.676Z,99493.16
2022-10-02T02:19:29.202Z,99489.06
2022-10-02T02:21:59.864Z,99488.88
2022-10-02T02:24:29.278Z,99483.91
2022-10-02T02:27:01.887Z,99492.25
2022-10-02T02:29:31.213Z,99489.41
2022-10-02T02:32:00.222Z,99490.97
2022-10-02T02:34:29.584Z,99495.72
2022-10-02T02:37:01.377Z,99495.50
2022-10-02T02:39:30.268Z,99490.09
2022-10-02T02:42:04.659Z,99489.13
2022-10-02T02:44:34.848Z,99495.88
2022-10-02T02:47:04.927Z,99493.66
2022-10-02T02:49:35.780Z,99499.06
2022-10-02T02:52:05.235Z,99509.31
2022-10-02T02:54:34.662Z,99506.53
2022-10-02T02:57:04.988Z,99505.91
2022-10-02T02:59:35.242Z,99511.00
2022-10-02T03:02:03.862Z,99510.38
2022-10-02T03:04:34.862Z,99513.03
2022-10-02T03:07:06.765Z,99517.94
2022-10-02T03:09:41.016Z,99517.50
2022-10-02T03:12:14.054Z,99527.09
2022-10-02T03:15:00.605Z,99521.03
2022-10-02T03:17:37.566Z,99525.88
2022-10-02T03:20:07.436Z,99530.59
2022-10-02T03:22:41.257Z,99532.06
2022-10-02T03:25:13.819Z,99532.75
2022-10-02T03:27:43.681Z,99538.22
2022-10-02T03:30:20.742Z,99535.78
2022-10-02T03:32:51.436Z,99549.03
2022-10-02T03:35:25.708Z,99542.88
2022-10-02T03:37:55.080Z,99548.44
2022-10-02T03:40:24.433Z,99555.94
2022-10-02T03:42:52.973Z,99557.09
2022-10-02T03:45:51.755Z,99556.38
2022-10-02T03:48:20.280Z,99559.81
2022-10-02T03:50:50.765Z,99559.97
2022-10-02T03:53:22.311Z,99567.37
2022-10-02T03:55:54.914Z,99574.75
2022-10-02T03:58:23.174Z,99582.94
2022-10-02T04:00:56.108Z,99572.69
2022-10-02T04:03:25.692Z,99570.97
2022-10-02T04:05:56.431Z,99567.63
2022-10-02T04:08:26.199Z,99574.63
2022-10-02T04:10:55.948Z,99579.38
2022-10-02T04:13:25.963Z,99576.81
2022-10-02T04:16:00.195Z,99582.28
2022-10-02T04:18:29.290Z,99585.97
2022-10-02T04:20:59.578Z,99590.16
2022-10-02T04:23:28.931Z,99595.81
2022-10-02T04:26:00.586Z,99590.47
2022-10-02T04:28:29.928Z,99598.16
2022-10-02T04:31:02.869Z,99597.87
2022-10-02T04:33:36.369Z,99602.28
2022-10-02T04:36:10.620Z,99607.84
2022-10-02T04:38:42.636Z,99607.25
2022-10-02T04:41:17.357Z,99613.75
2022-10-02T04:43:48.545Z,99621.50
2022-10-02T04:46:29.650Z,99638.56
2022-10-02T04:49:06.603Z,99637.19
2022-10-02T04:51:43.240Z,99637.31
2022-10-02T04:54:17.271Z,99644.69
2022-10-02T04:59:46.258Z,99654.09
2022-10-02T05:02:20.975Z,99655.09
2022-10-02T05:05:02.532Z,99671.94
2022-10-02T05:07:49.030Z,99661.25
2022-10-02T05:10:33.147Z,99665.06
2022-10-02T05:13:08.729Z,99671.81
2022-10-02T05:15:41.455Z,99677.78
2022-10-02T05:18:17.998Z,99678.38
2022-10-02T05:20:52.410Z,99679.69
2022-10-02T05:23:25.023Z,99679.53
2022-10-02T05:26:01.512Z,99680.03
2022-10-02T05:28:44.902Z,99681.00
2022-10-02T05:31:17.960Z,99677.62
2022-10-02T05:34:04.807Z,99681.56
2022-10-02T05:36:47.402Z,99686.84
2022-10-02T05:39:16.626Z,99680.81
2022-10-02T05:41:50.398Z,99693.12
2022-10-02T05:44:26.908Z,99688.06
2022-10-02T05:46:56.982Z,99691.66
2022-10-02T05:49:27.662Z,99695.03
2022-10-02T05:52:01.305Z,99695.53
2022-10-02T05:54:34.259Z,99693.75
2022-10-02T05:57:12.987Z,99703.94
2022-10-02T05:59:42.624Z,99712.19
2022-10-02T06:02:14.381Z,99715.31
2022-10-02T06:04:44.100Z,99706.84
2022-10-02T06:07:17.909Z,99711.94
2022-10-02T06:09:47.619Z,99713.16
2022-10-02T06:12:18.571Z,99715.75
2022-10-02T06:14:50.704Z,99720.63
2022-10-02T06:17:20.262Z,99726.91
2022-10-02T06:19:50.229Z,99732.41
2022-10-02T06:22:20.205Z,99734.78
2022-10-02T06:24:50.226Z,99741.31
2022-10-02T06:27:19.635Z,99745.75
2022-10-02T06:29:49.749Z,99746.47
2022-10-02T06:32:20.010Z,99748.75
2022-10-02T06:34:51.070Z,99756.22
2022-10-02T06:37:24.327Z,99756.00
2022-10-02T06:40:09.050Z,99756.59
2022-10-02T06:42:43.419Z,99759.28
2022-10-02T06:45:17.062Z,99767.19
2022-10-02T06:47:57.544Z,99770.06
2022-10-02T06:50:31.500Z,99769.03
2022-10-02T06:53:02.987Z,99784.59
2022-10-02T06:55:35.252Z,99795.03
2022-10-02T06:58:26.769Z,99790.38
2022-10-02T07:00:56.807Z,99787.28
2022-10-02T07:03:38.717Z,99796.94
2022-10-02T07:06:12.692Z,99797.00
2022-10-02T07:08:51.071Z,99798.56
2022-10-02T07:11:27.241Z,99816.31
2022-10-02T07:14:11.245Z,99812.53
2022-10-02T07:16:47.130Z,99812.94
2022-10-02T07:19:23.446Z,99809.94
2022-10-02T07:21:55.073Z,99805.50
2022-10-02T07:24:32.209Z,99812.72
2022-10-02T07:27:01.270Z,99810.53
2022-10-02T07:29:38.750Z,99806.75
2022-10-02T07:32:22.792Z,99814.19
2022-10-02T07:34:59.181Z,99818.84
2022-10-02T07:37:29.094Z,99816.84
2022-10-02T07:40:03.861Z,99810.03
2022-10-02T07:42:42.830Z,99813.94
2022-10-02T07:45:35.880Z,99821.62
2022-10-02T07:48:19.999Z,99819.94
2022-10-02T07:51:03.034Z,99826.25
2022-10-02T07:53:39.098Z,99816.81
2022-10-02T07:56:08.087Z,99822.25
2022-10-02T07:58:40.226Z,99822.44
2022-10-02T08:01:14.098Z,99825.75
2022-10-02T08:03:46.674Z,99839.72
2022-10-02T08:06:15.110Z,99833.91
2022-10-02T08:08:44.565Z,99841.59
2022-10-02T08:11:18.729Z,99842.06
2022-10-02T08:13:48.951Z,99838.56
2022-10-02T08:16:20.847Z,99844.69
2022-10-02T08:19:04.135Z,99839.28
2022-10-02T08:21:33.518Z,99841.66
2022-10-02T08:24:03.354Z,99843.34
2022-10-02T08:26:35.346Z,99834.53
2022-10-02T08:29:12.200Z,99839.56
2022-10-02T08:31:43.703Z,99847.31
2022-10-02T08:34:14.133Z,99854.31
2022-10-02T08:37:00.546Z,99849.97
2022-10-02T08:39:42.143Z,99855.72
2022-10-02T08:42:59.846Z,99854.44
2022-10-02T08:46:11.873Z,99853.09
2022-10-02T08:49:17.253Z,99847.34
2022-10-02T08:51:53.272Z,99848.53
2022-10-02T08:54:34.415Z,99846.56
2022-10-02T08:57:24.619Z,99858.06
2022-10-02T08:59:57.743Z,99856.94
2022-10-02T09:02:55.811Z,99860.22
2022-10-02T09:05:48.164Z,99853.16
2022-10-02T09:08:33.287Z,99853.94
2022-10-02T09:11:26.358Z,99855.69
2022-10-02T09:14:17.766Z,99857.75
2022-10-02T09:16:55.638Z,99852.03
2022-10-02T09:19:51.796Z,99850.03
2022-10-02T09:22:59.963Z,99861.88
2022-10-02T09:25:57.386Z,99865.56
2022-10-02T09:28:45.052Z,99856.94
2022-10-02T09:31:31.978Z,99858.84
2022-10-02T09:37:36.463Z,99850.06
2022-10-02T09:50:19.674Z,99832.19
2022-10-02T10:03:03.734Z,99835.00
2022-10-02T10:16:08.692Z,99817.66
2022-10-02T10:18:51.645Z,99813.28
2022-10-02T10:22:01.453Z,99819.31
2022-10-02T10:24:48.834Z,99805.13
2022-10-02T10:30:28.715Z,99801.75
2022-10-02T10:33:37.320Z,99807.25
2022-10-02T10:44:08.613Z,99798.28
2022-10-02T10:47:00.891Z,99804.56
2022-10-02T10:50:08.426Z,99804.38
2022-10-02T10:52:51.574Z,99800.69
2022-10-02T10:55:25.979Z,99803.03
2022-10-02T10:58:39.594Z,99803.91
2022-10-02T11:01:14.613Z,99794.84
2022-10-02T11:04:03.761Z,99802.87
2022-10-02T11:09:50.500Z,99821.72
2022-10-02T11:12:33.085Z,99816.53
2022-10-02T11:15:13.626Z,99812.88
2022-10-02T11:28:21.859Z,99815.59
2022-10-02T11:31:11.740Z,99811.78
2022-10-02T11:33:52.917Z,99811.56
2022-10-02T11:36:51.523Z,99799.97
2022-10-02T11:39:33.875Z,99793.88
2022-10-02T11:42:16.226Z,99793.94
2022-10-02T11:45:05.621Z,99781.63
2022-10-02T11:48:06.891Z,99781.59
2022-10-02T11:50:40.454Z,99786.59
2022-10-02T11:53:18.337Z,99786.84
2022-10-02T11:55:57.872Z,99785.81
2022-10-02T11:58:59.448Z,99777.03
2022-10-02T12:01:35.284Z,99785.38
2022-10-02T12:04:25.828Z,99775.78
2022-10-02T12:07:15.064Z,99787.63
2022-10-02T12:09:55.616Z,99792.00
2022-10-02T12:12:39.195Z,99800.22
2022-10-02T12:15:25.556Z,99798.66
2022-10-02T12:18:00.403Z,99795.00
2022-10-02T12:21:02.438Z,99799.50
2022-10-02T12:24:02.458Z,99787.41
2022-10-02T12:30:04.980Z,99768.69
2022-10-02T12:32:46.799Z,99767.03
2022-10-02T12:35:22.403Z,99765.59
2022-10-02T12:37:54.697Z,99767.00
2022-10-02T12:40:34.735Z,99764.25
2022-10-02T12:43:23.161Z,99748.34
2022-10-02T12:46:00.917Z,99745.44
2022-10-02T12:48:38.426Z,99747.31
2022-10-02T12:51:23.722Z,99748.06
2022-10-02T12:54:10.459Z,99735.16
2022-10-02T12:56:57.466Z,99734.87
2022-10-02T12:59:27.919Z,99738.31
2022-10-02T13:02:06.165Z,99730.25
2022-10-02T13:08:05.597Z,99713.72
2022-10-02T13:10:55.134Z,99720.72
2022-10-02T13:13:31.609Z,99711.84
2022-10-02T13:16:15.020Z,99713.16
2022-10-02T13:19:11.604Z,99708.75
2022-10-02T13:22:01.060Z,99711.94
2022-10-02T13:24:53.490Z,99709.66
2022-10-02T13:27:44.730Z,99711.75
2022-10-02T13:36:47.915Z,99702.78
2022-10-02T13:39:23.894Z,99706.91
2022-10-02T13:42:05.090Z,99697.06
2022-10-02T13:44:36.872Z,99698.97
2022-10-02T13:50:54.746Z,99676.75
2022-10-02T13:53:43.881Z,99687.56
2022-10-02T13:56:26.763Z,99683.03
2022-10-02T13:59:02.163Z,99671.75
2022-10-02T14:01:42.094Z,99676.06
2022-10-02T14:07:46.748Z,99682.25
2022-10-02T14:10:29.053Z,99680.69
2022-10-02T14:13:02.405Z,99683.38
2022-10-02T14:15:51.014Z,99680.31
2022-10-02T14:18:51.060Z,99681.66
2022-10-02T14:21:27.992Z,99670.81
2022-10-02T14:24:14.642Z,99674.75
2022-10-02T14:26:54.546Z,99677.00
2022-10-02T14:29:29.405Z,99671.16
2022-10-02T14:32:29.297Z,99657.25
2022-10-02T14:35:13.499Z,99654.38
2022-10-02T14:37:58.458Z,99656.13
2022-10-02T14:40:33.761Z,99660.63
2022-10-02T14:43:12.881Z,99660.28
2022-10-02T14:45:51.946Z,99660.47
2022-10-02T14:48:34.135Z,99656.19
2022-10-02T14:51:15.362Z,99645.63
2022-10-02T14:54:01.376Z,99638.31
2022-10-02T14:56:44.908Z,99632.44
2022-10-02T14:59:27.731Z,99635.72
2022-10-02T15:02:11.754Z,99632.50
2022-10-02T15:04:45.661Z,99628.75
2022-10-02T15:07:14.387Z,99628.53
2022-10-02T15:10:11.993Z,99620.94
2022-10-02T15:12:58.440Z,99628.25
2022-10-02T15:15:34.894Z,99627.94
2022-10-02T15:18:20.230Z,99620.37
2022-10-02T15:20:57.712Z,99626.03
2022-10-02T15:23:41.452Z,99626.06
2022-10-02T15:26:23.704Z,99625.72
2022-10-02T15:29:10.761Z,99617.03
2022-10-02T15:31:59.806Z,99604.72
2022-10-02T15:34:32.530Z,99600.66
2022-10-02T15:37:03.438Z,99605.37
2022-10-02T15:39:38.708Z,99602.41
2022-10-02T15:42:18.875Z,99596.91
2022-10-02T15:44:56.929Z,99593.91
2022-10-02T15:47:45.109Z,99596.72
2022-10-02T15:50:35.095Z,99605.56
2022-10-02T15:53:08.379Z,99615.41
2022-10-02T15:55:42.608Z,99593.94
2022-10-02T15:58:18.567Z,99598.03
2022-10-02T16:01:17.030Z,99592.06
2022-10-02T16:03:54.908Z,99593.28
2022-10-02T16:06:25.824Z,99601.38
2022-10-02T16:09:06.748Z,99591.13
2022-10-02T16:11:58.259Z,99592.03
2022-10-02T16:14:35.680Z,99592.72
2022-10-02T16:20:22.486Z,99597.50
2022-10-02T16:23:12.844Z,99594.25
2022-10-02T16:26:00.386Z,99602.03
2022-10-02T16:28:35.030Z,99589.22
2022-10-02T16:31:17.866Z,99584.75
2022-10-02T16:33:51.496Z,99590.88
2022-10-02T16:36:32.029Z,99604.56
2022-10-02T16:39:06.078Z,99614.47
2022-10-02T16:41:39.099Z,99622.34
2022-10-02T16:44:26.327Z,99609.09
2022-10-02T16:49:50.494Z,99595.16
2022-10-02T16:52:25.629Z,99595.34
2022-10-02T16:54:59.519Z,99593.94
2022-10-02T16:57:40.202Z,99591.16
2022-10-02T17:00:14.457Z,99587.19
2022-10-02T17:02:45.679Z,99590.44
2022-10-02T17:05:23.711Z,99588.00
2022-10-02T17:08:01.946Z,99590.22
2022-10-02T17:10:37.337Z,99581.50
2022-10-02T17:13:16.191Z,99586.66
2022-10-02T17:15:49.646Z,99581.56
2022-10-02T17:18:26.069Z,99579.81
2022-10-02T17:20:56.425Z,99578.25
2022-10-02T17:23:30.700Z,99577.66
2022-10-02T17:28:58.312Z,99577.31
2022-10-02T17:31:34.704Z,99570.06
2022-10-02T17:34:18.599Z,99568.91
2022-10-02T17:36:51.522Z,99576.91
2022-10-02T17:39:51.689Z,99572.81
2022-10-02T17:42:23.959Z,99567.69
2022-10-02T17:44:55.071Z,99568.25
2022-10-02T17:47:39.294Z,99572.91
2022-10-02T17:50:42.423Z,99572.94
2022-10-02T17:53:46.988Z,99571.91
2022-10-02T18:00:04.470Z,99565.47
2022-10-02T18:02:57.058Z,99566.81
2022-10-02T18:09:18.181Z,99572.38
2022-10-02T18:12:15.040Z,99577.31
2022-10-02T18:14:55.122Z,99578.72
2022-10-02T18:17:31.731Z,99563.41
2022-10-02T18:20:10.723Z,99564.75
2022-10-02T18:22:48.631Z,99574.37
2022-10-02T18:25:20.537Z,99566.69
2022-10-02T18:28:03.490Z,99575.84
2022-10-02T18:30:43.529Z,99569.00
2022-10-02T18:33:48.782Z,99571.50
2022-10-02T18:36:20.714Z,99575.06
2022-10-02T18:38:55.027Z,99579.25
2022-10-02T18:41:32.432Z,99574.87
2022-10-02T18:44:04.193Z,99586.00
2022-10-02T18:46:39.158Z,99573.16
2022-10-02T18:49:21.934Z,99586.75
2022-10-02T18:52:08.903Z,99586.44
2022-10-02T18:54:41.510Z,99585.88
2022-10-02T18:57:24.797Z,99573.16
2022-10-02T18:59:56.648Z,99567.34
2022-10-02T19:02:36.611Z,99568.09
2022-10-02T19:05:31.139Z,99571.63
2022-10-02T19:08:14.886Z,99579.59
2022-10-02T19:10:48.276Z,99580.03
2022-10-02T19:13:26.177Z,99574.81
2022-10-02T19:16:01.207Z,99570.69
2022-10-02T19:18:37.331Z,99572.19
2022-10-02T19:21:21.472Z,99573.03
2022-10-02T19:23:55.656Z,99585.12
2022-10-02T19:26:31.557Z,99586.34
2022-10-02T19:29:02.980Z,99576.28
2022-10-02T19:31:44.953Z,99594.00
2022-10-02T19:34:18.830Z,99578.81
2022-10-02T19:36:54.622Z,99580.22
2022-10-02T19:39:32.844Z,99572.84
2022-10-02T19:42:38.202Z,99569.09
2022-10-02T19:45:24.517Z,99566.78
2022-10-02T19:47:57.310Z,99556.03
2022-10-02T19:50:41.402Z,99545.53
2022-10-02T19:53:21.649Z,99537.41
2022-10-02T19:56:13.351Z,99545.13
2022-10-02T19:58:57.278Z,99538.41
2022-10-02T20:01:30.536Z,99537.56
2022-10-02T20:04:00.600Z,99537.38
2022-10-02T20:06:32.768Z,99533.97
2022-10-02T20:09:02.825Z,99536.87
2022-10-02T20:11:38.082Z,99528.06
2022-10-02T20:14:09.361Z,99539.19
2022-10-02T20:16:56.722Z,99530.94
2022-10-02T20:19:26.201Z,99529.84
2022-10-02T20:22:01.187Z,99528.84
2022-10-02T20:24:32.992Z,99525.47
2022-10-02T20:27:04.281Z,99520.47
2022-10-02T20:29:34.837Z,99523.84
2022-10-02T20:32:10.623Z,99518.28
2022-10-02T20:34:45.709Z,99511.69
2022-10-02T20:37:15.959Z,99515.94
2022-10-02T20:40:09.982Z,99516.09
2022-10-02T20:42:42.428Z,99516.94
2022-10-02T20:45:12.564Z,99513.19
2022-10-02T20:48:01.454Z,99505.34
2022-10-02T20:50:59.856Z,99498.34
2022-10-02T20:53:37.766Z,99507.88
2022-10-02T20:56:15.954Z,99504.84
2022-10-02T20:58:55.081Z,99501.00
2022-10-02T21:01:30.748Z,99517.03
2022-10-02T21:04:19.831Z,99525.66
2022-10-02T21:07:09.782Z,99536.28
2022-10-02T21:09:57.843Z,99535.56
2022-10-02T21:12:47.396Z,99527.66
2022-10-02T21:15:34.363Z,99530.22
2022-10-02T21:18:30.938Z,99527.38
2022-10-02T21:21:07.990Z,99523.91
2022-10-02T21:23:56.927Z,99524.31
2022-10-02T21:26:46.115Z,99526.22
2022-10-02T21:29:44.590Z,99521.81
2022-10-02T21:32:25.555Z,99517.78
2022-10-02T21:38:32.203Z,99516.44
2022-10-02T21:41:21.119Z,99514.34
2022-10-02T21:44:25.374Z,99510.56
2022-10-02T21:47:12.679Z,99509.22
2022-10-02T21:53:36.563Z,99499.22
2022-10-02T21:56:23.939Z,99508.88
2022-10-02T22:02:19.134Z,99498.53
2022-10-02T22:08:22.700Z,99501.16
2022-10-02T22:11:01.530Z,99498.53
2022-10-02T22:16:30.465Z,99504.44
2022-10-02T22:19:05.064Z,99505.63
2022-10-02T22:21:49.841Z,99501.94
2022-10-02T22:24:57.099Z,99497.72
2022-10-02T22:27:43.830Z,99495.91
2022-10-02T22:33:56.426Z,99505.81
2022-10-02T22:40:28.312Z,99503.13
2022-10-02T22:43:01.457Z,99494.84
2022-10-02T22:45:34.548Z,99498.75
2022-10-02T22:51:32.428Z,99493.00
2022-10-02T22:54:24.081Z,99485.41
2022-10-02T23:00:07.439Z,99493.94
2022-10-02T23:02:45.630Z,99498.06
2022-10-02T23:05:17.390Z,99490.53
2022-10-02T23:07:48.015Z,99495.53
2022-10-02T23:10:18.428Z,99501.31
2022-10-02T23:12:50.799Z,99496.75
2022-10-02T23:21:53.411Z,99478.44
2022-10-02T23:31:12.265Z,99482.16
2022-10-02T23:33:42.380Z,99474.19
2022-10-02T23:36:24.466Z,99474.84
2022-10-02T23:39:30.599Z,99468.19
2022-10-02T23:42:16.293Z,99471.69
2022-10-02T23:45:14.158Z,99469.72
2022-10-02T23:47:47.072Z,99479.94
2022-10-02T23:50:29.094Z,99471.97
2022-10-02T23:53:33.100Z,99481.03
2022-10-02T23:56:09.696Z,99475.50
